sensor_id;sensor_type;location;lat;lon;timestamp;P1;durP1;ratioP1;P2;durP2;ratioP2
39324;SDS011;25037;49.488;9.900;2024-01-07T00:02:18;11.30;;;6.43;;
39324;SDS011;25037;49.488;9.900;2024-01-07T00:04:45;14.55;;;7.43;;
39324;SDS011;25037;49.488;9.900;2024-01-07T00:07:12;15.77;;;7.45;;
39324;SDS011;25037;49.488;9.900;2024-01-07T00:09:39;12.80;;;6.25;;
39324;SDS011;25037;49.488;9.900;2024-01-07T00:12:06;13.27;;;7.38;;
39324;SDS011;25037;49.488;9.900;2024-01-07T00:14:32;16.02;;;7.50;;
39324;SDS011;25037;49.488;9.900;2024-01-07T00:16:59;17.60;;;8.15;;
39324;SDS011;25037;49.488;9.900;2024-01-07T00:19:26;14.60;;;8.45;;
39324;SDS011;25037;49.488;9.900;2024-01-07T00:21:52;14.85;;;8.77;;
39324;SDS011;25037;49.488;9.900;2024-01-07T00:24:19;15.90;;;7.22;;
39324;SDS011;25037;49.488;9.900;2024-01-07T00:26:46;15.90;;;7.88;;
39324;SDS011;25037;49.488;9.900;2024-01-07T00:29:12;13.32;;;6.05;;
39324;SDS011;25037;49.488;9.900;2024-01-07T00:31:39;12.38;;;6.22;;
39324;SDS011;25037;49.488;9.900;2024-01-07T00:34:06;14.65;;;5.72;;
39324;SDS011;25037;49.488;9.900;2024-01-07T00:36:32;12.20;;;5.55;;
39324;SDS011;25037;49.488;9.900;2024-01-07T00:38:59;11.77;;;6.05;;
39324;SDS011;25037;49.488;9.900;2024-01-07T00:41:26;14.65;;;6.20;;
39324;SDS011;25037;49.488;9.900;2024-01-07T00:43:53;12.05;;;6.03;;
39324;SDS011;25037;49.488;9.900;2024-01-07T00:46:19;13.20;;;5.32;;
39324;SDS011;25037;49.488;9.900;2024-01-07T00:48:46;14.45;;;6.43;;
39324;SDS011;25037;49.488;9.900;2024-01-07T00:51:13;13.88;;;5.70;;
39324;SDS011;25037;49.488;9.900;2024-01-07T00:53:39;13.25;;;6.30;;
39324;SDS011;25037;49.488;9.900;2024-01-07T00:56:06;11.15;;;5.97;;
39324;SDS011;25037;49.488;9.900;2024-01-07T00:58:33;12.30;;;5.07;;
39324;SDS011;25037;49.488;9.900;2024-01-07T01:01:01;10.95;;;6.13;;
39324;SDS011;25037;49.488;9.900;2024-01-07T01:03:28;10.48;;;5.10;;
39324;SDS011;25037;49.488;9.900;2024-01-07T01:05:55;9.40;;;5.60;;
39324;SDS011;25037;49.488;9.900;2024-01-07T01:08:22;13.65;;;5.97;;
39324;SDS011;25037;49.488;9.900;2024-01-07T01:20:35;10.70;;;4.97;;
39324;SDS011;25037;49.488;9.900;2024-01-07T01:23:02;12.40;;;4.88;;
39324;SDS011;25037;49.488;9.900;2024-01-07T01:25:29;11.07;;;5.68;;
39324;SDS011;25037;49.488;9.900;2024-01-07T01:27:56;10.43;;;5.97;;
39324;SDS011;25037;49.488;9.900;2024-01-07T01:30:23;10.73;;;5.68;;
39324;SDS011;25037;49.488;9.900;2024-01-07T01:32:49;10.30;;;5.15;;
39324;SDS011;25037;49.488;9.900;2024-01-07T01:35:16;12.48;;;5.10;;
39324;SDS011;25037;49.488;9.900;2024-01-07T01:37:43;12.63;;;5.65;;
39324;SDS011;25037;49.488;9.900;2024-01-07T01:40:10;12.63;;;5.65;;
39324;SDS011;25037;49.488;9.900;2024-01-07T01:42:37;12.30;;;5.72;;
39324;SDS011;25037;49.488;9.900;2024-01-07T01:45:04;10.05;;;5.30;;
39324;SDS011;25037;49.488;9.900;2024-01-07T01:47:31;15.50;;;5.63;;
39324;SDS011;25037;49.488;9.900;2024-01-07T01:49:58;10.23;;;4.95;;
39324;SDS011;25037;49.488;9.900;2024-01-07T01:54:52;13.65;;;6.70;;
39324;SDS011;25037;49.488;9.900;2024-01-07T01:57:19;11.93;;;6.30;;
39324;SDS011;25037;49.488;9.900;2024-01-07T01:59:50;14.88;;;6.60;;
39324;SDS011;25037;49.488;9.900;2024-01-07T02:02:17;11.18;;;6.13;;
39324;SDS011;25037;49.488;9.900;2024-01-07T02:04:44;11.57;;;5.93;;
39324;SDS011;25037;49.488;9.900;2024-01-07T02:07:11;11.13;;;6.72;;
39324;SDS011;25037;49.488;9.900;2024-01-07T02:09:38;12.68;;;6.15;;
39324;SDS011;25037;49.488;9.900;2024-01-07T02:12:06;13.57;;;5.75;;
39324;SDS011;25037;49.488;9.900;2024-01-07T02:14:38;11.05;;;5.88;;
39324;SDS011;25037;49.488;9.900;2024-01-07T02:17:05;11.13;;;5.95;;
39324;SDS011;25037;49.488;9.900;2024-01-07T02:19:32;9.65;;;5.25;;
39324;SDS011;25037;49.488;9.900;2024-01-07T02:21:59;11.40;;;6.43;;
39324;SDS011;25037;49.488;9.900;2024-01-07T02:24:26;13.00;;;6.40;;
39324;SDS011;25037;49.488;9.900;2024-01-07T02:26:52;11.25;;;6.10;;
39324;SDS011;25037;49.488;9.900;2024-01-07T02:29:19;13.48;;;6.68;;
39324;SDS011;25037;49.488;9.900;2024-01-07T02:31:46;13.27;;;7.00;;
39324;SDS011;25037;49.488;9.900;2024-01-07T02:34:12;13.30;;;7.05;;
39324;SDS011;25037;49.488;9.900;2024-01-07T02:36:39;16.52;;;7.72;;
39324;SDS011;25037;49.488;9.900;2024-01-07T02:39:06;12.32;;;8.35;;
39324;SDS011;25037;49.488;9.900;2024-01-07T02:41:33;12.70;;;7.60;;
39324;SDS011;25037;49.488;9.900;2024-01-07T02:43:59;14.43;;;6.95;;
39324;SDS011;25037;49.488;9.900;2024-01-07T02:46:26;12.85;;;6.85;;
39324;SDS011;25037;49.488;9.900;2024-01-07T02:48:53;13.90;;;6.85;;
39324;SDS011;25037;49.488;9.900;2024-01-07T02:51:19;16.42;;;7.53;;
39324;SDS011;25037;49.488;9.900;2024-01-07T02:53:46;14.13;;;6.82;;
39324;SDS011;25037;49.488;9.900;2024-01-07T02:56:13;15.00;;;7.25;;
39324;SDS011;25037;49.488;9.900;2024-01-07T02:58:39;10.60;;;5.72;;
39324;SDS011;25037;49.488;9.900;2024-01-07T03:01:09;11.32;;;5.72;;
39324;SDS011;25037;49.488;9.900;2024-01-07T03:03:36;10.90;;;5.88;;
39324;SDS011;25037;49.488;9.900;2024-01-07T03:06:03;12.85;;;6.78;;
39324;SDS011;25037;49.488;9.900;2024-01-07T03:08:31;12.00;;;6.63;;
39324;SDS011;25037;49.488;9.900;2024-01-07T03:10:57;10.45;;;6.40;;
39324;SDS011;25037;49.488;9.900;2024-01-07T03:13:24;14.07;;;6.78;;
39324;SDS011;25037;49.488;9.900;2024-01-07T03:15:51;14.48;;;7.00;;
39324;SDS011;25037;49.488;9.900;2024-01-07T03:18:18;11.05;;;5.78;;
39324;SDS011;25037;49.488;9.900;2024-01-07T03:20:44;12.23;;;5.82;;
39324;SDS011;25037;49.488;9.900;2024-01-07T03:23:11;13.98;;;6.93;;
39324;SDS011;25037;49.488;9.900;2024-01-07T03:25:38;13.07;;;6.30;;
39324;SDS011;25037;49.488;9.900;2024-01-07T03:28:04;16.17;;;7.40;;
39324;SDS011;25037;49.488;9.900;2024-01-07T03:30:31;13.25;;;7.40;;
39324;SDS011;25037;49.488;9.900;2024-01-07T03:32:58;11.90;;;7.57;;
39324;SDS011;25037;49.488;9.900;2024-01-07T03:35:25;13.93;;;6.43;;
39324;SDS011;25037;49.488;9.900;2024-01-07T03:37:51;16.70;;;7.07;;
39324;SDS011;25037;49.488;9.900;2024-01-07T03:40:18;16.23;;;7.25;;
39324;SDS011;25037;49.488;9.900;2024-01-07T03:42:45;15.23;;;6.40;;
39324;SDS011;25037;49.488;9.900;2024-01-07T03:45:11;13.90;;;6.30;;
39324;SDS011;25037;49.488;9.900;2024-01-07T03:47:38;11.82;;;6.03;;
39324;SDS011;25037;49.488;9.900;2024-01-07T03:50:05;13.95;;;6.10;;
39324;SDS011;25037;49.488;9.900;2024-01-07T03:52:32;11.02;;;5.97;;
39324;SDS011;25037;49.488;9.900;2024-01-07T03:55:00;13.77;;;5.97;;
39324;SDS011;25037;49.488;9.900;2024-01-07T03:57:27;11.23;;;5.78;;
39324;SDS011;25037;49.488;9.900;2024-01-07T03:59:53;12.15;;;6.32;;
39324;SDS011;25037;49.488;9.900;2024-01-07T04:02:20;13.05;;;6.00;;
39324;SDS011;25037;49.488;9.900;2024-01-07T04:04:47;15.32;;;5.93;;
39324;SDS011;25037;49.488;9.900;2024-01-07T04:07:13;14.52;;;6.15;;
39324;SDS011;25037;49.488;9.900;2024-01-07T04:09:42;12.70;;;5.88;;
39324;SDS011;25037;49.488;9.900;2024-01-07T04:12:09;11.00;;;5.13;;
39324;SDS011;25037;49.488;9.900;2024-01-07T04:14:36;12.02;;;5.40;;
39324;SDS011;25037;49.488;9.900;2024-01-07T04:17:03;11.82;;;6.13;;
39324;SDS011;25037;49.488;9.900;2024-01-07T04:19:29;10.40;;;5.43;;
39324;SDS011;25037;49.488;9.900;2024-01-07T04:21:56;11.23;;;5.10;;
39324;SDS011;25037;49.488;9.900;2024-01-07T04:24:23;10.85;;;5.65;;
39324;SDS011;25037;49.488;9.900;2024-01-07T04:26:49;11.88;;;5.20;;
39324;SDS011;25037;49.488;9.900;2024-01-07T04:29:16;12.38;;;5.38;;
39324;SDS011;25037;49.488;9.900;2024-01-07T04:31:43;12.30;;;5.00;;
39324;SDS011;25037;49.488;9.900;2024-01-07T04:34:10;10.35;;;5.28;;
39324;SDS011;25037;49.488;9.900;2024-01-07T04:36:37;12.55;;;5.70;;
39324;SDS011;25037;49.488;9.900;2024-01-07T04:39:04;12.38;;;5.70;;
39324;SDS011;25037;49.488;9.900;2024-01-07T04:41:31;13.88;;;5.68;;
39324;SDS011;25037;49.488;9.900;2024-01-07T04:43:58;10.77;;;4.47;;
39324;SDS011;25037;49.488;9.900;2024-01-07T04:46:24;12.02;;;5.72;;
39324;SDS011;25037;49.488;9.900;2024-01-07T04:48:51;10.60;;;5.03;;
39324;SDS011;25037;49.488;9.900;2024-01-07T04:51:18;10.00;;;4.57;;
39324;SDS011;25037;49.488;9.900;2024-01-07T04:53:44;12.85;;;5.15;;
39324;SDS011;25037;49.488;9.900;2024-01-07T04:56:11;9.77;;;5.18;;
39324;SDS011;25037;49.488;9.900;2024-01-07T04:58:38;8.68;;;5.50;;
39324;SDS011;25037;49.488;9.900;2024-01-07T05:01:06;10.38;;;4.78;;
39324;SDS011;25037;49.488;9.900;2024-01-07T05:03:33;9.77;;;4.40;;
39324;SDS011;25037;49.488;9.900;2024-01-07T05:06:00;9.02;;;4.22;;
39324;SDS011;25037;49.488;9.900;2024-01-07T05:08:28;9.15;;;4.47;;
39324;SDS011;25037;49.488;9.900;2024-01-07T05:10:54;7.65;;;3.60;;
39324;SDS011;25037;49.488;9.900;2024-01-07T05:13:21;10.00;;;4.35;;
39324;SDS011;25037;49.488;9.900;2024-01-07T05:15:48;7.00;;;2.80;;
39324;SDS011;25037;49.488;9.900;2024-01-07T05:18:23;7.90;;;3.25;;
39324;SDS011;25037;49.488;9.900;2024-01-07T05:20:50;9.68;;;4.03;;
39324;SDS011;25037;49.488;9.900;2024-01-07T05:23:17;7.38;;;3.58;;
39324;SDS011;25037;49.488;9.900;2024-01-07T05:25:44;7.70;;;3.25;;
39324;SDS011;25037;49.488;9.900;2024-01-07T05:30:38;7.97;;;3.78;;
39324;SDS011;25037;49.488;9.900;2024-01-07T05:33:05;6.85;;;3.13;;
39324;SDS011;25037;49.488;9.900;2024-01-07T05:35:32;9.65;;;4.55;;
39324;SDS011;25037;49.488;9.900;2024-01-07T05:37:58;8.55;;;3.63;;
39324;SDS011;25037;49.488;9.900;2024-01-07T05:40:25;7.53;;;3.53;;
39324;SDS011;25037;49.488;9.900;2024-01-07T05:42:52;8.35;;;3.85;;
39324;SDS011;25037;49.488;9.900;2024-01-07T05:45:19;6.80;;;3.17;;
39324;SDS011;25037;49.488;9.900;2024-01-07T05:47:46;10.82;;;4.15;;
39324;SDS011;25037;49.488;9.900;2024-01-07T05:50:13;7.57;;;3.05;;
39324;SDS011;25037;49.488;9.900;2024-01-07T05:52:42;9.73;;;5.38;;
39324;SDS011;25037;49.488;9.900;2024-01-07T05:55:09;11.23;;;3.78;;
39324;SDS011;25037;49.488;9.900;2024-01-07T05:57:36;8.13;;;3.08;;
39324;SDS011;25037;49.488;9.900;2024-01-07T06:00:03;7.60;;;3.05;;
39324;SDS011;25037;49.488;9.900;2024-01-07T06:07:23;7.13;;;2.42;;
39324;SDS011;25037;49.488;9.900;2024-01-07T06:09:50;9.77;;;3.75;;
39324;SDS011;25037;49.488;9.900;2024-01-07T06:12:16;10.90;;;4.63;;
39324;SDS011;25037;49.488;9.900;2024-01-07T06:14:43;12.18;;;4.93;;
39324;SDS011;25037;49.488;9.900;2024-01-07T06:17:10;11.98;;;5.88;;
39324;SDS011;25037;49.488;9.900;2024-01-07T06:19:37;9.60;;;4.32;;
39324;SDS011;25037;49.488;9.900;2024-01-07T06:22:03;8.98;;;4.05;;
39324;SDS011;25037;49.488;9.900;2024-01-07T06:24:30;9.77;;;4.53;;
39324;SDS011;25037;49.488;9.900;2024-01-07T06:26:57;10.23;;;3.88;;
39324;SDS011;25037;49.488;9.900;2024-01-07T06:29:24;9.60;;;4.00;;
39324;SDS011;25037;49.488;9.900;2024-01-07T06:31:50;7.65;;;3.28;;
39324;SDS011;25037;49.488;9.900;2024-01-07T06:36:44;12.52;;;4.72;;
39324;SDS011;25037;49.488;9.900;2024-01-07T06:39:11;5.78;;;2.65;;
39324;SDS011;25037;49.488;9.900;2024-01-07T06:41:38;10.90;;;4.43;;
39324;SDS011;25037;49.488;9.900;2024-01-07T06:44:05;10.40;;;4.43;;
39324;SDS011;25037;49.488;9.900;2024-01-07T06:46:31;12.80;;;4.90;;
39324;SDS011;25037;49.488;9.900;2024-01-07T06:49:00;9.82;;;4.78;;
39324;SDS011;25037;49.488;9.900;2024-01-07T06:51:27;12.85;;;5.28;;
39324;SDS011;25037;49.488;9.900;2024-01-07T06:53:54;13.82;;;5.35;;
39324;SDS011;25037;49.488;9.900;2024-01-07T06:56:21;11.55;;;5.13;;
39324;SDS011;25037;49.488;9.900;2024-01-07T06:58:47;9.60;;;4.43;;
39324;SDS011;25037;49.488;9.900;2024-01-07T07:01:17;13.23;;;5.30;;
39324;SDS011;25037;49.488;9.900;2024-01-07T07:03:50;7.43;;;3.65;;
39324;SDS011;25037;49.488;9.900;2024-01-07T07:06:17;10.18;;;4.68;;
39324;SDS011;25037;49.488;9.900;2024-01-07T07:08:44;7.20;;;3.22;;
39324;SDS011;25037;49.488;9.900;2024-01-07T07:11:11;7.22;;;3.85;;
39324;SDS011;25037;49.488;9.900;2024-01-07T07:13:38;11.50;;;4.75;;
39324;SDS011;25037;49.488;9.900;2024-01-07T07:16:05;10.40;;;4.47;;
39324;SDS011;25037;49.488;9.900;2024-01-07T07:18:32;10.27;;;4.30;;
39324;SDS011;25037;49.488;9.900;2024-01-07T07:20:59;11.38;;;5.20;;
39324;SDS011;25037;49.488;9.900;2024-01-07T07:23:26;8.68;;;3.47;;
39324;SDS011;25037;49.488;9.900;2024-01-07T07:25:53;5.00;;;2.30;;
39324;SDS011;25037;49.488;9.900;2024-01-07T07:28:19;6.90;;;3.28;;
39324;SDS011;25037;49.488;9.900;2024-01-07T07:30:46;5.35;;;1.80;;
39324;SDS011;25037;49.488;9.900;2024-01-07T07:33:17;6.70;;;2.88;;
39324;SDS011;25037;49.488;9.900;2024-01-07T07:38:12;4.82;;;2.25;;
39324;SDS011;25037;49.488;9.900;2024-01-07T07:40:39;5.85;;;3.13;;
39324;SDS011;25037;49.488;9.900;2024-01-07T07:43:05;5.90;;;2.65;;
39324;SDS011;25037;49.488;9.900;2024-01-07T07:45:33;8.82;;;3.97;;
39324;SDS011;25037;49.488;9.900;2024-01-07T07:48:00;8.60;;;3.83;;
39324;SDS011;25037;49.488;9.900;2024-01-07T07:50:26;8.05;;;3.83;;
39324;SDS011;25037;49.488;9.900;2024-01-07T07:52:53;9.15;;;3.97;;
39324;SDS011;25037;49.488;9.900;2024-01-07T07:55:20;8.02;;;4.13;;
39324;SDS011;25037;49.488;9.900;2024-01-07T07:57:46;9.40;;;4.07;;
39324;SDS011;25037;49.488;9.900;2024-01-07T08:02:40;10.30;;;3.92;;
39324;SDS011;25037;49.488;9.900;2024-01-07T08:05:07;8.77;;;3.88;;
39324;SDS011;25037;49.488;9.900;2024-01-07T08:07:34;10.05;;;4.28;;
39324;SDS011;25037;49.488;9.900;2024-01-07T08:10:01;7.90;;;4.07;;
39324;SDS011;25037;49.488;9.900;2024-01-07T08:12:29;10.10;;;3.97;;
39324;SDS011;25037;49.488;9.900;2024-01-07T08:14:55;7.38;;;3.88;;
39324;SDS011;25037;49.488;9.900;2024-01-07T08:17:22;7.78;;;3.80;;
39324;SDS011;25037;49.488;9.900;2024-01-07T08:19:50;9.00;;;3.65;;
39324;SDS011;25037;49.488;9.900;2024-01-07T08:22:18;10.57;;;4.28;;
39324;SDS011;25037;49.488;9.900;2024-01-07T08:27:12;7.00;;;2.72;;
39324;SDS011;25037;49.488;9.900;2024-01-07T08:29:38;8.10;;;3.50;;
39324;SDS011;25037;49.488;9.900;2024-01-07T08:32:08;7.07;;;3.08;;
39324;SDS011;25037;49.488;9.900;2024-01-07T08:34:35;6.25;;;3.10;;
39324;SDS011;25037;49.488;9.900;2024-01-07T08:37:02;6.13;;;2.75;;
39324;SDS011;25037;49.488;9.900;2024-01-07T08:39:29;8.38;;;3.75;;
39324;SDS011;25037;49.488;9.900;2024-01-07T08:41:56;5.40;;;2.80;;
39324;SDS011;25037;49.488;9.900;2024-01-07T08:44:22;5.30;;;2.60;;
39324;SDS011;25037;49.488;9.900;2024-01-07T08:46:49;7.85;;;3.30;;
39324;SDS011;25037;49.488;9.900;2024-01-07T08:49:16;6.28;;;2.70;;
39324;SDS011;25037;49.488;9.900;2024-01-07T08:51:44;5.55;;;2.60;;
39324;SDS011;25037;49.488;9.900;2024-01-07T08:54:11;5.72;;;2.35;;
39324;SDS011;25037;49.488;9.900;2024-01-07T08:56:37;5.95;;;2.70;;
39324;SDS011;25037;49.488;9.900;2024-01-07T08:59:05;6.93;;;2.67;;
39324;SDS011;25037;49.488;9.900;2024-01-07T09:01:32;7.50;;;3.20;;
39324;SDS011;25037;49.488;9.900;2024-01-07T09:03:59;7.53;;;3.83;;
39324;SDS011;25037;49.488;9.900;2024-01-07T09:06:25;6.63;;;2.85;;
39324;SDS011;25037;49.488;9.900;2024-01-07T09:08:52;7.82;;;3.15;;
39324;SDS011;25037;49.488;9.900;2024-01-07T09:11:19;8.20;;;2.95;;
39324;SDS011;25037;49.488;9.900;2024-01-07T09:13:46;7.30;;;3.70;;
39324;SDS011;25037;49.488;9.900;2024-01-07T09:16:15;9.85;;;4.07;;
39324;SDS011;25037;49.488;9.900;2024-01-07T09:18:42;6.80;;;3.13;;
39324;SDS011;25037;49.488;9.900;2024-01-07T09:21:10;6.95;;;2.85;;
39324;SDS011;25037;49.488;9.900;2024-01-07T09:23:38;10.32;;;4.20;;
39324;SDS011;25037;49.488;9.900;2024-01-07T09:26:05;8.32;;;3.50;;
39324;SDS011;25037;49.488;9.900;2024-01-07T09:28:32;7.28;;;3.13;;
39324;SDS011;25037;49.488;9.900;2024-01-07T09:30:58;8.77;;;3.40;;
39324;SDS011;25037;49.488;9.900;2024-01-07T09:33:25;6.82;;;3.22;;
39324;SDS011;25037;49.488;9.900;2024-01-07T09:35:52;8.63;;;3.28;;
39324;SDS011;25037;49.488;9.900;2024-01-07T09:38:27;7.20;;;2.78;;
39324;SDS011;25037;49.488;9.900;2024-01-07T09:40:54;7.97;;;3.88;;
39324;SDS011;25037;49.488;9.900;2024-01-07T09:43:20;7.97;;;4.72;;
39324;SDS011;25037;49.488;9.900;2024-01-07T09:45:48;7.80;;;3.42;;
39324;SDS011;25037;49.488;9.900;2024-01-07T09:48:18;8.20;;;3.55;;
39324;SDS011;25037;49.488;9.900;2024-01-07T09:50:45;7.22;;;3.58;;
39324;SDS011;25037;49.488;9.900;2024-01-07T09:58:32;8.65;;;3.33;;
39324;SDS011;25037;49.488;9.900;2024-01-07T10:00:59;8.57;;;4.07;;
39324;SDS011;25037;49.488;9.900;2024-01-07T10:03:26;9.35;;;4.10;;
39324;SDS011;25037;49.488;9.900;2024-01-07T10:05:52;8.05;;;3.42;;
39324;SDS011;25037;49.488;9.900;2024-01-07T10:08:19;7.43;;;3.17;;
39324;SDS011;25037;49.488;9.900;2024-01-07T10:10:48;5.97;;;2.75;;
39324;SDS011;25037;49.488;9.900;2024-01-07T10:13:15;8.55;;;3.22;;
39324;SDS011;25037;49.488;9.900;2024-01-07T10:15:41;7.38;;;3.55;;
39324;SDS011;25037;49.488;9.900;2024-01-07T10:18:08;9.48;;;4.25;;
39324;SDS011;25037;49.488;9.900;2024-01-07T10:20:35;8.27;;;4.07;;
39324;SDS011;25037;49.488;9.900;2024-01-07T10:23:02;7.35;;;3.35;;
39324;SDS011;25037;49.488;9.900;2024-01-07T10:25:32;7.28;;;3.17;;
39324;SDS011;25037;49.488;9.900;2024-01-07T10:27:59;11.10;;;4.25;;
39324;SDS011;25037;49.488;9.900;2024-01-07T10:30:27;9.20;;;4.10;;
39324;SDS011;25037;49.488;9.900;2024-01-07T10:32:55;9.50;;;4.40;;
39324;SDS011;25037;49.488;9.900;2024-01-07T10:35:28;9.00;;;4.90;;
39324;SDS011;25037;49.488;9.900;2024-01-07T10:38:02;9.80;;;5.10;;
39324;SDS011;25037;49.488;9.900;2024-01-07T10:40:30;10.38;;;4.22;;
39324;SDS011;25037;49.488;9.900;2024-01-07T10:42:58;7.45;;;3.42;;
39324;SDS011;25037;49.488;9.900;2024-01-07T10:45:25;11.38;;;4.97;;
39324;SDS011;25037;49.488;9.900;2024-01-07T10:50:21;6.80;;;3.55;;
39324;SDS011;25037;49.488;9.900;2024-01-07T10:52:48;7.57;;;3.47;;
39324;SDS011;25037;49.488;9.900;2024-01-07T10:55:19;8.63;;;3.95;;
39324;SDS011;25037;49.488;9.900;2024-01-07T10:57:52;7.80;;;3.90;;
39324;SDS011;25037;49.488;9.900;2024-01-07T11:00:22;9.38;;;4.25;;
39324;SDS011;25037;49.488;9.900;2024-01-07T11:03:09;8.93;;;3.50;;
39324;SDS011;25037;49.488;9.900;2024-01-07T11:05:47;10.00;;;5.40;;
39324;SDS011;25037;49.488;9.900;2024-01-07T11:10:58;10.05;;;4.68;;
39324;SDS011;25037;49.488;9.900;2024-01-07T11:13:36;9.73;;;5.22;;
39324;SDS011;25037;49.488;9.900;2024-01-07T11:16:07;6.40;;;3.10;;
39324;SDS011;25037;49.488;9.900;2024-01-07T11:18:38;9.10;;;3.92;;
39324;SDS011;25037;49.488;9.900;2024-01-07T11:21:21;10.32;;;4.55;;
39324;SDS011;25037;49.488;9.900;2024-01-07T11:23:50;8.38;;;3.63;;
39324;SDS011;25037;49.488;9.900;2024-01-07T11:26:22;9.02;;;5.20;;
39324;SDS011;25037;49.488;9.900;2024-01-07T11:28:55;10.65;;;5.30;;
39324;SDS011;25037;49.488;9.900;2024-01-07T11:34:08;10.68;;;4.63;;
39324;SDS011;25037;49.488;9.900;2024-01-07T11:36:36;7.93;;;4.70;;
39324;SDS011;25037;49.488;9.900;2024-01-07T11:39:04;11.38;;;4.65;;
39324;SDS011;25037;49.488;9.900;2024-01-07T11:41:35;10.80;;;4.50;;
39324;SDS011;25037;49.488;9.900;2024-01-07T11:44:02;8.43;;;4.05;;
39324;SDS011;25037;49.488;9.900;2024-01-07T11:46:32;10.35;;;5.25;;
39324;SDS011;25037;49.488;9.900;2024-01-07T11:48:59;10.00;;;5.03;;
39324;SDS011;25037;49.488;9.900;2024-01-07T11:51:27;8.93;;;4.80;;
39324;SDS011;25037;49.488;9.900;2024-01-07T11:53:59;8.15;;;4.22;;
39324;SDS011;25037;49.488;9.900;2024-01-07T11:56:27;10.00;;;5.38;;
39324;SDS011;25037;49.488;9.900;2024-01-07T11:58:55;10.55;;;5.55;;
39324;SDS011;25037;49.488;9.900;2024-01-07T12:01:25;7.43;;;3.03;;
39324;SDS011;25037;49.488;9.900;2024-01-07T12:03:53;9.57;;;4.93;;
39324;SDS011;25037;49.488;9.900;2024-01-07T12:06:20;10.18;;;6.28;;
39324;SDS011;25037;49.488;9.900;2024-01-07T12:08:47;8.50;;;3.83;;
39324;SDS011;25037;49.488;9.900;2024-01-07T12:11:14;9.48;;;5.00;;
39324;SDS011;25037;49.488;9.900;2024-01-07T12:13:42;7.47;;;3.83;;
39324;SDS011;25037;49.488;9.900;2024-01-07T12:16:09;10.45;;;4.43;;
39324;SDS011;25037;49.488;9.900;2024-01-07T12:18:37;12.98;;;6.10;;
39324;SDS011;25037;49.488;9.900;2024-01-07T12:21:05;10.05;;;4.97;;
39324;SDS011;25037;49.488;9.900;2024-01-07T12:23:35;10.15;;;5.05;;
39324;SDS011;25037;49.488;9.900;2024-01-07T12:26:09;9.82;;;4.68;;
39324;SDS011;25037;49.488;9.900;2024-01-07T12:28:36;11.43;;;5.38;;
39324;SDS011;25037;49.488;9.900;2024-01-07T12:31:04;8.02;;;4.18;;
39324;SDS011;25037;49.488;9.900;2024-01-07T12:33:32;10.95;;;5.78;;
39324;SDS011;25037;49.488;9.900;2024-01-07T12:36:00;9.43;;;5.25;;
39324;SDS011;25037;49.488;9.900;2024-01-07T12:38:27;8.27;;;3.65;;
39324;SDS011;25037;49.488;9.900;2024-01-07T12:40:54;11.23;;;3.63;;
39324;SDS011;25037;49.488;9.900;2024-01-07T12:43:21;7.45;;;3.75;;
39324;SDS011;25037;49.488;9.900;2024-01-07T12:45:48;9.80;;;4.68;;
39324;SDS011;25037;49.488;9.900;2024-01-07T12:48:15;9.15;;;3.15;;
39324;SDS011;25037;49.488;9.900;2024-01-07T12:50:42;9.45;;;4.22;;
39324;SDS011;25037;49.488;9.900;2024-01-07T12:53:09;10.13;;;3.53;;
39324;SDS011;25037;49.488;9.900;2024-01-07T12:55:36;8.88;;;4.68;;
39324;SDS011;25037;49.488;9.900;2024-01-07T12:58:02;10.02;;;4.75;;
39324;SDS011;25037;49.488;9.900;2024-01-07T13:00:29;9.57;;;4.30;;
39324;SDS011;25037;49.488;9.900;2024-01-07T13:02:56;9.93;;;4.30;;
39324;SDS011;25037;49.488;9.900;2024-01-07T13:05:26;7.75;;;4.00;;
39324;SDS011;25037;49.488;9.900;2024-01-07T13:07:54;10.25;;;4.18;;
39324;SDS011;25037;49.488;9.900;2024-01-07T13:10:21;5.97;;;2.85;;
39324;SDS011;25037;49.488;9.900;2024-01-07T13:12:48;12.48;;;4.13;;
39324;SDS011;25037;49.488;9.900;2024-01-07T13:15:20;5.90;;;3.33;;
39324;SDS011;25037;49.488;9.900;2024-01-07T13:17:48;6.18;;;2.53;;
39324;SDS011;25037;49.488;9.900;2024-01-07T13:20:15;8.52;;;3.55;;
39324;SDS011;25037;49.488;9.900;2024-01-07T13:22:43;8.00;;;3.65;;
39324;SDS011;25037;49.488;9.900;2024-01-07T13:25:10;8.20;;;3.72;;
39324;SDS011;25037;49.488;9.900;2024-01-07T13:27:36;8.18;;;3.45;;
39324;SDS011;25037;49.488;9.900;2024-01-07T13:30:04;7.18;;;3.20;;
39324;SDS011;25037;49.488;9.900;2024-01-07T13:32:32;6.80;;;3.05;;
39324;SDS011;25037;49.488;9.900;2024-01-07T13:35:03;4.47;;;1.98;;
39324;SDS011;25037;49.488;9.900;2024-01-07T13:37:33;8.07;;;3.85;;
39324;SDS011;25037;49.488;9.900;2024-01-07T13:40:00;6.82;;;3.20;;
39324;SDS011;25037;49.488;9.900;2024-01-07T13:44:54;5.72;;;3.00;;
39324;SDS011;25037;49.488;9.900;2024-01-07T13:47:20;6.30;;;2.97;;
39324;SDS011;25037;49.488;9.900;2024-01-07T13:49:47;7.03;;;2.60;;
39324;SDS011;25037;49.488;9.900;2024-01-07T13:52:14;6.82;;;2.30;;
39324;SDS011;25037;49.488;9.900;2024-01-07T13:54:42;7.07;;;2.63;;
39324;SDS011;25037;49.488;9.900;2024-01-07T13:57:08;8.88;;;3.50;;
39324;SDS011;25037;49.488;9.900;2024-01-07T13:59:35;6.50;;;2.58;;
39324;SDS011;25037;49.488;9.900;2024-01-07T14:02:02;4.35;;;2.45;;
39324;SDS011;25037;49.488;9.900;2024-01-07T14:04:31;6.90;;;3.03;;
39324;SDS011;25037;49.488;9.900;2024-01-07T14:06:58;7.03;;;2.42;;
39324;SDS011;25037;49.488;9.900;2024-01-07T14:09:25;5.63;;;2.33;;
39324;SDS011;25037;49.488;9.900;2024-01-07T14:11:52;6.65;;;3.05;;
39324;SDS011;25037;49.488;9.900;2024-01-07T14:14:19;5.25;;;2.53;;
39324;SDS011;25037;49.488;9.900;2024-01-07T14:16:46;5.20;;;2.75;;
39324;SDS011;25037;49.488;9.900;2024-01-07T14:19:12;6.15;;;3.50;;
39324;SDS011;25037;49.488;9.900;2024-01-07T14:21:41;6.97;;;3.17;;
39324;SDS011;25037;49.488;9.900;2024-01-07T14:24:08;6.43;;;2.90;;
39324;SDS011;25037;49.488;9.900;2024-01-07T14:26:35;4.88;;;2.47;;
39324;SDS011;25037;49.488;9.900;2024-01-07T14:29:01;5.43;;;3.20;;
39324;SDS011;25037;49.488;9.900;2024-01-07T14:31:42;6.43;;;3.03;;
39324;SDS011;25037;49.488;9.900;2024-01-07T14:34:09;5.35;;;2.53;;
39324;SDS011;25037;49.488;9.900;2024-01-07T14:36:39;6.15;;;2.08;;
39324;SDS011;25037;49.488;9.900;2024-01-07T14:44:03;5.50;;;2.30;;
39324;SDS011;25037;49.488;9.900;2024-01-07T14:46:36;5.93;;;2.25;;
39324;SDS011;25037;49.488;9.900;2024-01-07T14:49:03;7.40;;;2.80;;
39324;SDS011;25037;49.488;9.900;2024-01-07T14:51:30;9.18;;;3.72;;
39324;SDS011;25037;49.488;9.900;2024-01-07T14:53:58;4.85;;;1.90;;
39324;SDS011;25037;49.488;9.900;2024-01-07T14:56:25;8.05;;;3.33;;
39324;SDS011;25037;49.488;9.900;2024-01-07T14:58:52;5.88;;;3.05;;
39324;SDS011;25037;49.488;9.900;2024-01-07T15:01:18;5.80;;;2.22;;
39324;SDS011;25037;49.488;9.900;2024-01-07T15:03:46;5.72;;;2.75;;
39324;SDS011;25037;49.488;9.900;2024-01-07T15:06:12;7.55;;;2.80;;
39324;SDS011;25037;49.488;9.900;2024-01-07T15:08:41;7.95;;;3.20;;
39324;SDS011;25037;49.488;9.900;2024-01-07T15:11:09;9.50;;;3.67;;
39324;SDS011;25037;49.488;9.900;2024-01-07T15:13:36;5.97;;;2.35;;
39324;SDS011;25037;49.488;9.900;2024-01-07T15:16:04;8.82;;;3.20;;
39324;SDS011;25037;49.488;9.900;2024-01-07T15:18:32;6.63;;;2.90;;
39324;SDS011;25037;49.488;9.900;2024-01-07T15:21:03;5.85;;;2.28;;
39324;SDS011;25037;49.488;9.900;2024-01-07T15:23:31;7.68;;;2.90;;
39324;SDS011;25037;49.488;9.900;2024-01-07T15:25:58;6.18;;;2.45;;
39324;SDS011;25037;49.488;9.900;2024-01-07T15:28:24;7.43;;;2.58;;
39324;SDS011;25037;49.488;9.900;2024-01-07T15:30:51;6.18;;;2.53;;
39324;SDS011;25037;49.488;9.900;2024-01-07T15:33:18;6.05;;;2.67;;